createdAt,value
2019-02-14T00:03:06.970Z,103665.91
2019-02-14T00:08:09.025Z,103665.92
2019-02-14T00:13:10.586Z,103668.73
2019-02-14T00:18:12.267Z,103671.71
2019-02-14T00:23:13.828Z,103668.23
2019-02-14T00:28:15.496Z,103662.86
2019-02-14T00:33:17.078Z,103656.78
2019-02-14T00:38:19.101Z,103662.55
2019-02-14T00:43:20.808Z,103657.73
2019-02-14T00:48:22.398Z,103644.95
2019-02-14T00:53:24.494Z,103644.39
2019-02-14T00:58:26.112Z,103633.45
2019-02-14T01:03:27.686Z,103625.88
2019-02-14T01:08:29.331Z,103624.94
2019-02-14T01:13:31.306Z,103616.63
2019-02-14T01:18:32.956Z,103609.42
2019-02-14T01:23:34.901Z,103619.23
2019-02-14T01:28:36.458Z,103624.63
2019-02-14T01:33:38.430Z,103627.76
2019-02-14T01:38:40.058Z,103631.86
2019-02-14T01:43:41.691Z,103634.66
2019-02-14T01:48:43.257Z,103623.16
2019-02-14T01:53:44.881Z,103620.61
2019-02-14T01:58:46.556Z,103623.58
2019-02-14T02:03:48.128Z,103624.72
2019-02-14T02:08:49.707Z,103619.73
2019-02-14T02:13:51.308Z,103611.59
2019-02-14T02:18:53.264Z,103615.87
2019-02-14T02:23:54.901Z,103620.16
2019-02-14T02:28:56.488Z,103619.81
2019-02-14T02:33:58.128Z,103604.83
2019-02-14T02:38:59.710Z,103605.97
2019-02-14T02:44:01.268Z,103608.20
2019-02-14T02:49:02.891Z,103614.16
2019-02-14T02:54:04.475Z,103623.80
2019-02-14T02:59:06.027Z,103621.41
2019-02-14T03:04:07.570Z,103619.76
2019-02-14T03:09:09.152Z,103619.20
2019-02-14T03:14:10.760Z,103603.31
2019-02-14T03:19:12.320Z,103606.06
2019-02-14T03:24:13.904Z,103606.47
2019-02-14T03:29:15.455Z,103609.06
2019-02-14T03:34:17.031Z,103613.88
2019-02-14T03:39:18.662Z,103609.63
2019-02-14T03:44:20.564Z,103607.59
2019-02-14T03:49:22.148Z,103617.97
2019-02-14T03:54:23.689Z,103628.33
2019-02-14T03:59:25.360Z,103621.48
2019-02-14T04:04:26.922Z,103620.95
2019-02-14T04:09:28.479Z,103608.72
2019-02-14T04:14:30.068Z,103615.59
2019-02-14T04:19:31.994Z,103622.44
2019-02-14T04:24:33.523Z,103627.81
2019-02-14T04:29:35.128Z,103632.42
2019-02-14T04:34:36.660Z,103641.13
2019-02-14T04:39:38.248Z,103650.02
2019-02-14T04:44:39.816Z,103649.27
2019-02-14T04:49:42.112Z,103645.01
2019-02-14T04:54:43.709Z,103649.47
2019-02-14T04:59:45.275Z,103651.31
2019-02-14T05:04:47.152Z,103650.92
2019-02-14T05:09:48.689Z,103654.43
2019-02-14T05:14:50.283Z,103659.81
2019-02-14T05:19:52.357Z,103665.55
2019-02-14T05:24:54.013Z,103660.00
2019-02-14T05:29:55.603Z,103659.06
2019-02-14T05:34:57.357Z,103663.87
2019-02-14T05:39:58.933Z,103660.91
2019-02-14T05:45:00.586Z,103661.09
2019-02-14T05:50:02.290Z,103662.77
2019-02-14T05:55:04.405Z,103658.52
2019-02-14T06:00:07.865Z,103649.62
2019-02-14T06:05:09.435Z,103663.70
2019-02-14T06:10:11.203Z,103667.95
2019-02-14T06:15:12.803Z,103674.23
2019-02-14T06:20:14.456Z,103675.73
2019-02-14T06:25:16.061Z,103681.44
2019-02-14T06:30:17.646Z,103692.91
2019-02-14T06:35:19.274Z,103701.77
2019-02-14T06:40:20.855Z,103706.02
2019-02-14T06:45:22.454Z,103712.67
2019-02-14T06:50:24.176Z,103713.42
2019-02-14T06:55:25.740Z,103723.41
2019-02-14T07:00:27.360Z,103716.72
2019-02-14T07:05:28.917Z,103723.38
2019-02-14T07:10:30.489Z,103712.84
2019-02-14T07:15:32.053Z,103725.97
2019-02-14T07:20:33.617Z,103727.81
2019-02-14T07:25:35.255Z,103732.63
2019-02-14T07:30:36.901Z,103739.28
2019-02-14T07:35:38.491Z,103751.88
2019-02-14T07:40:40.052Z,103751.15
2019-02-14T07:45:41.677Z,103750.59
2019-02-14T07:50:43.674Z,103762.80
2019-02-14T07:55:45.276Z,103755.81
2019-02-14T08:00:46.849Z,103744.50
2019-02-14T08:05:48.419Z,103753.03
2019-02-14T08:10:50.099Z,103748.80
2019-02-14T08:15:51.719Z,103739.35
2019-02-14T08:20:53.781Z,103751.22
2019-02-14T08:25:55.351Z,103755.67
2019-02-14T08:30:57.037Z,103755.30
2019-02-14T08:36:00.411Z,103750.31
2019-02-14T08:41:02.013Z,103744.55
2019-02-14T08:46:03.572Z,103743.80
2019-02-14T08:51:05.211Z,103746.41
2019-02-14T08:56:06.908Z,103747.48
2019-02-14T09:01:08.839Z,103746.73
2019-02-14T09:06:10.457Z,103753.14
2019-02-14T09:11:12.130Z,103751.55
2019-02-14T09:16:14.052Z,103748.81
2019-02-14T09:21:15.677Z,103752.33
2019-02-14T09:26:17.358Z,103746.70
2019-02-14T09:31:19.573Z,103738.98
2019-02-14T09:36:21.354Z,103729.70
2019-02-14T09:41:23.444Z,103733.38
2019-02-14T09:46:26.767Z,103728.72
2019-02-14T09:51:28.373Z,103730.95
2019-02-14T09:56:30.002Z,103728.05
2019-02-14T10:01:31.946Z,103719.84
2019-02-14T10:06:36.699Z,103724.06
2019-02-14T10:11:37.949Z,103726.00
2019-02-14T10:16:39.528Z,103725.70
2019-02-14T10:21:41.173Z,103718.27
2019-02-14T10:26:42.832Z,103711.70
2019-02-14T10:31:44.425Z,103712.84
2019-02-14T10:36:46.047Z,103712.45
2019-02-14T10:41:47.657Z,103720.47
2019-02-14T10:46:49.319Z,103723.27
2019-02-14T10:51:50.934Z,103724.64
2019-02-14T10:56:52.573Z,103730.06
2019-02-14T11:01:54.164Z,103727.62
2019-02-14T11:06:56.267Z,103731.05
2019-02-14T11:11:57.814Z,103726.08
2019-02-14T11:16:59.799Z,103723.68
2019-02-14T11:22:01.376Z,103719.21
2019-02-14T11:27:02.992Z,103715.62
2019-02-14T11:32:04.638Z,103717.60
2019-02-14T11:37:06.150Z,103708.07
2019-02-14T11:42:07.747Z,103713.14
2019-02-14T11:47:09.360Z,103703.38
2019-02-14T11:52:11.043Z,103708.99
2019-02-14T11:57:13.512Z,103704.20
2019-02-14T12:02:15.535Z,103699.39
2019-02-14T12:07:17.565Z,103690.38
2019-02-14T12:12:20.758Z,103688.23
2019-02-14T12:17:22.926Z,103691.17
2019-02-14T12:22:24.509Z,103689.12
2019-02-14T12:27:26.142Z,103685.11
2019-02-14T12:32:27.807Z,103680.63
2019-02-14T12:37:29.458Z,103673.84
2019-02-14T12:42:31.047Z,103657.77
2019-02-14T12:47:32.766Z,103653.66
2019-02-14T12:52:34.380Z,103643.98
2019-02-14T12:57:37.047Z,103641.09
2019-02-14T13:02:38.670Z,103627.14
2019-02-14T13:07:40.699Z,103626.44
2019-02-14T13:12:42.359Z,103627.04
2019-02-14T13:17:43.921Z,103626.64
2019-02-14T13:22:46.434Z,103618.58
2019-02-14T13:27:48.103Z,103603.86
2019-02-14T13:32:49.688Z,103610.94
2019-02-14T13:37:51.317Z,103607.32
2019-02-14T13:42:52.980Z,103592.83
2019-02-14T13:47:54.532Z,103594.88
2019-02-14T13:52:57.147Z,103582.19
2019-02-14T13:57:58.861Z,103583.00
2019-02-14T14:03:00.868Z,103593.73
2019-02-14T14:08:02.510Z,103582.55
2019-02-14T14:13:04.508Z,103575.03
2019-02-14T14:18:06.150Z,103570.24
2019-02-14T14:23:07.719Z,103566.48
2019-02-14T14:28:09.747Z,103571.38
2019-02-14T14:33:11.800Z,103561.92
2019-02-14T14:38:13.360Z,103567.29
2019-02-14T14:43:14.955Z,103563.13
2019-02-14T14:48:19.560Z,103559.56
2019-02-14T14:53:20.011Z,103554.87
2019-02-14T14:58:21.739Z,103525.02
2019-02-14T15:03:23.313Z,103524.56
2019-02-14T15:08:24.940Z,103532.17
2019-02-14T15:13:26.986Z,103527.20
2019-02-14T15:18:28.602Z,103522.70
2019-02-14T15:23:30.269Z,103517.41
2019-02-14T15:28:31.856Z,103506.03
2019-02-14T15:33:33.554Z,103504.63
2019-02-14T15:38:37.058Z,103495.97
2019-02-14T15:43:38.931Z,103493.33
2019-02-14T15:48:41.032Z,103482.20
2019-02-14T15:53:44.263Z,103485.06
2019-02-14T15:58:46.163Z,103478.20
2019-02-14T16:03:47.849Z,103477.81
2019-02-14T16:08:49.454Z,103481.19
2019-02-14T16:13:52.847Z,103476.55
2019-02-14T16:18:54.906Z,103469.55
2019-02-14T16:23:56.530Z,103483.45
2019-02-14T16:28:59.838Z,103466.59
2019-02-14T16:34:01.614Z,103472.77
2019-02-14T16:39:04.264Z,103465.27
2019-02-14T16:44:05.872Z,103461.97
2019-02-14T16:49:07.872Z,103462.32
2019-02-14T16:54:09.502Z,103463.03
2019-02-14T16:59:11.072Z,103472.85
2019-02-14T17:04:13.071Z,103471.19
2019-02-14T17:09:14.758Z,103473.22
2019-02-14T17:14:16.348Z,103474.58
2019-02-14T17:19:18.386Z,103482.77
2019-02-14T17:24:19.983Z,103476.77
2019-02-14T17:29:21.905Z,103485.42
2019-02-14T17:34:23.929Z,103491.20
2019-02-14T17:39:25.602Z,103494.61
2019-02-14T17:44:27.224Z,103492.88
2019-02-14T17:49:28.832Z,103502.75
2019-02-14T17:54:30.748Z,103497.52
2019-02-14T17:59:33.821Z,103498.54
2019-02-14T18:04:35.553Z,103496.66
2019-02-14T18:09:37.500Z,103501.61
2019-02-14T18:14:39.173Z,103495.66
2019-02-14T18:19:41.196Z,103497.44
2019-02-14T18:24:42.827Z,103496.98
2019-02-14T18:29:44.405Z,103494.59
2019-02-14T18:34:46.071Z,103498.95
2019-02-14T18:39:47.986Z,103498.09
2019-02-14T18:44:49.599Z,103493.31
2019-02-14T18:49:51.603Z,103486.05
2019-02-14T18:54:53.298Z,103489.36
2019-02-14T18:59:55.350Z,103497.64
2019-02-14T19:04:57.021Z,103484.89
2019-02-14T19:09:59.080Z,103486.79
2019-02-14T19:15:00.907Z,103490.22
2019-02-14T19:20:02.876Z,103490.89
2019-02-14T19:25:04.637Z,103488.19
2019-02-14T19:30:06.960Z,103485.70
2019-02-14T19:35:08.650Z,103486.74
2019-02-14T19:40:10.269Z,103493.68
2019-02-14T19:45:12.848Z,103490.71
2019-02-14T19:50:14.557Z,103490.02
2019-02-14T19:55:16.140Z,103488.67
2019-02-14T20:00:18.212Z,103488.86
2019-02-14T20:05:19.879Z,103483.48
2019-02-14T20:10:21.485Z,103476.59
2019-02-14T20:15:23.117Z,103478.52
2019-02-14T20:20:24.837Z,103480.43
2019-02-14T20:25:26.973Z,103480.53
2019-02-14T20:30:28.548Z,103476.67
2019-02-14T20:35:30.609Z,103468.53
2019-02-14T20:40:32.275Z,103466.38
2019-02-14T20:45:35.532Z,103464.06
2019-02-14T20:50:37.223Z,103471.51
2019-02-14T20:55:38.975Z,103462.74
2019-02-14T21:00:40.951Z,103452.98
2019-02-14T21:05:42.503Z,103454.96
2019-02-14T21:10:44.869Z,103457.71
2019-02-14T21:15:46.606Z,103464.80
2019-02-14T21:20:48.228Z,103456.02
2019-02-14T21:25:49.937Z,103458.20
2019-02-14T21:30:51.949Z,103461.14
2019-02-14T21:35:53.571Z,103449.61
2019-02-14T21:40:55.174Z,103449.61
2019-02-14T21:45:57.660Z,103447.36
2019-02-14T21:50:59.419Z,103446.20
2019-02-14T21:56:01.393Z,103442.78
2019-02-14T22:01:03.014Z,103442.31
2019-02-14T22:06:05.733Z,103439.38
2019-02-14T22:11:07.413Z,103442.61
2019-02-14T22:16:08.994Z,103431.22
2019-02-14T22:21:10.615Z,103428.25
2019-02-14T22:26:12.191Z,103425.98
2019-02-14T22:31:13.780Z,103427.54
2019-02-14T22:36:15.408Z,103432.06
2019-02-14T22:41:16.985Z,103435.84
2019-02-14T22:46:18.606Z,103434.17
2019-02-14T22:51:20.217Z,103429.38
2019-02-14T22:56:22.489Z,103430.93
2019-02-14T23:01:24.216Z,103433.03
2019-02-14T23:06:25.880Z,103429.98
2019-02-14T23:11:27.518Z,103436.69
2019-02-14T23:16:29.147Z,103438.72
2019-02-14T23:21:30.715Z,103435.45
2019-02-14T23:26:32.368Z,103443.33
2019-02-14T23:31:34.352Z,103438.38
2019-02-14T23:36:35.929Z,103437.66
2019-02-14T23:41:37.469Z,103434.90
2019-02-14T23:46:39.078Z,103435.85
2019-02-14T23:51:41.148Z,103440.52
2019-02-14T23:56:42.708Z,103438.14
